arxmliv
arxmliv build tool
 
KWARC group
LaTeXML
About
   
 

Detailed info

Back to Homepage

List of missing_macros

No. Date Filename num_warningnum_errornum_xmargok_xmargnum_xmathok_xmathMissing macros
112401 2013-03-09 19:57:01 /0611/hep-ph.0611185 1510000[{comment}].
112402 2013-03-09 19:56:44 /0611/hep-ph.0611183 830000[\TCItag, \Qcb, \FRAME].
112403 2013-03-09 19:56:41 /0611/hep-ph.0611197 1120000[\layoutstyle, \classification].
112404 2013-03-09 19:56:36 /0611/hep-ph.0611172 6040000[{fmffile}, \Text, \Line, \CArc].
112405 2013-03-09 19:56:35 /0611/hep-ph.0611181 360000[\Text, \ArrowLine, \Photon, \DashArrowArcn, \DashArrowArc, \DashArrowLine].
112406 2013-03-09 19:56:27 /0611/hep-ph.0611187 710000[\theparentequation].
112407 2013-03-09 19:56:24 /0611/hep-ph.0611159 14650000[\psfrag, \tablinesep, \arraylinesep, \extrarulesep]; 1 missing file[tabls.sty].
112408 2013-03-09 19:56:15 /0611/hep-ph.0611186 030000[\extrasenglish, \dateenglish, \captionsenglish].
112409 2013-03-09 19:56:01 /0611/hep-ph.0611167 110000[\abstracts].
112410 2013-03-09 19:55:52 /0611/hep-ph.0611175 90150000[\Text, \ArrowLine, \Vertex, \SetWidth, \Photon, \CArc, \ZigZag].
112411 2013-03-09 19:55:19 /0611/hep-ph.0611174 1740000[\ArrowLine, \SetWidth, \Photon, \SetScale].
112412 2013-03-09 19:55:16 /0611/hep-ph.0611146 40180000[\DashArrowLine, \Text, \Vertex, \SetOffset, \DashArrowArc, \E, \DashLine, \I, \ArrowArc, \Line, \GlueArc, \GCirc, \ArrowLine, \DashCArc, \D, \CBoxc, \CArc, \Gluon].
112413 2013-03-09 19:54:18 /0611/hep-ph.0611161 120000[\layoutstyle, \classification].
112414 2013-03-09 19:54:13 /0611/hep-ph.0611165 080000[\QTR, \TCItag, \QDATOP].
112415 2013-03-09 19:54:08 /0611/hep-ph.0611150 740000[{theacknowledgments}, \layoutstyle, \classification]; 1 missing file[{aipcheck}].
112416 2013-03-09 19:54:06 /0611/hep-ph.0611166 430000[{theacknowledgments}, \layoutstyle, \classification].
112417 2013-03-09 19:53:56 /0611/hep-ph.0611101 7630000[\slashed, \psfrag, \displaylimits].
112418 2013-03-09 19:53:56 /0611/hep-ph.0611151 340000[\ShortTitle, \email, \FullConference, \speaker]; 1 missing file[PoS.cls].
112419 2013-03-09 19:53:50 /0611/hep-ph.0611137 1140000[\ShortTitle, \email, \FullConference, \speaker]; 1 missing file[PoS.cls].
112420 2013-03-09 19:53:44 /0611/hep-ph.0611139 610000[\violet].
112421 2013-03-09 19:53:32 /0611/hep-ph.0611138 960000[\ShortTitle, \email, \FullConference, \speaker]; 1 missing file[PoS.cls].
112422 2013-03-09 19:53:27 /0611/hep-ph.0611120 11040000[\slashed, \psfrag].
112423 2013-03-09 19:53:19 /0611/hep-ph.0611140 020000[\layoutstyle, \classification].
112424 2013-03-09 19:52:57 /0611/hep-ph.0611117 5420000[\headings]; 1 missing file[sussp.sty].
112425 2013-03-09 19:52:19 /0611/hep-ph.0611123 3380000[\Line, \GlueArc, \SetColor, \SetWidth, \SetScale, \CArc, \PhotonArc, \DashLine].
112426 2013-03-09 19:52:17 /0611/hep-ph.0611119 640000[\ShortTitle, \email, \FullConference, \speaker]; 1 missing file[PoS.cls].
112427 2013-03-09 19:51:59 /0611/hep-ph.0611122 8120000[\ShortTitle, \email, \FullConference, \speaker]; 1 missing file[PoS.cls].
112428 2013-03-09 19:51:54 /0611/hep-ph.0611124 630000[{theacknowledgments}, \layoutstyle, \classification].
112429 2013-03-09 19:51:44 /0611/hep-ph.0611105 4310000[\slashed].
112430 2013-03-09 19:51:22 /0611/hep-ph.0611112 440000[{theacknowledgments}, \layoutstyle, \classification]; 1 missing file[{aipcheck.tex}].
112431 2013-03-09 19:51:05 /0611/hep-ph.0611114 030000[\ccode, \catchline, \keywords].
112432 2013-03-09 19:50:51 /0611/hep-lat.0611030 26510000[\fpsbox].
112433 2013-03-09 19:50:37 /0611/hep-ph.0611092 2850000[\ShortTitle, \email, \FullConference, \psfrag, \speaker]; 1 missing file[PoS.cls].
112434 2013-03-09 19:50:26 /0611/hep-ph.0611104 010000[\ead].
112435 2013-03-09 19:50:24 /0611/hep-ph.0611087 1110000[\layoutstyle, \classification]; 1 missing file[{aipcheck}].
112436 2013-03-09 19:50:20 /0611/hep-ph.0611089 1640000[{theacknowledgments}, \layoutstyle, \classification]; 1 missing file[{aipcheck}].
112437 2013-03-09 19:50:04 /0611/hep-ph.0611067 450000[\includegraphics, \ShortTitle, \email, \FullConference, \speaker]; 1 missing file[PoS.cls].
112438 2013-03-09 19:50:00 /0611/hep-ph.0611065 1340000[\FADiagram, {feynartspicture}, \FALabel, \FAProp].
112439 2013-03-09 19:49:57 /0611/hep-ph.0611077 2550000[\includegraphics, \ShortTitle, \email, \FullConference, \speaker]; 1 missing file[PoS.cls].
112440 2013-03-09 19:49:55 /0611/hep-ph.0611083 14130000[\includegraphics, \ShortTitle, \email, \FullConference, \speaker]; 1 missing file[PoS.cls].
112441 2013-03-09 19:49:45 /0611/hep-ph.0611081 140000[\layoutstyle, \classification].
112442 2013-03-09 19:49:44 /0611/hep-ph.0611084 250000[\SetInternalRegister, {theacknowledgments}, \layoutstyle, \classification]; 1 missing file[{aipcheck.tex}].
112443 2013-03-09 19:49:34 /0611/hep-ph.0611070 2050000[\includegraphics, \ShortTitle, \email, \FullConference, \speaker]; 1 missing file[PoS.cls].
112444 2013-03-09 19:49:32 /0611/hep-ph.0611058 1310000[\@ignoretrue].
112445 2013-03-09 19:49:31 /0611/hep-ph.0611040 1830000[\cmidrule, \toprule, \bottomrule].
112446 2013-03-09 19:48:30 /0611/hep-ph.0611063 13150000[\includegraphics, \ShortTitle, \email, \FullConference, \speaker]; 1 missing file[PoS.cls].
112447 2013-03-09 19:48:29 /0611/hep-ph.0611064 830000[\layoutstyle, \classification]; 1 missing file[{aipcheck}].
112448 2013-03-09 19:47:53 /0611/hep-ph.0611053 020000[\layoutstyle, \classification].
112449 2013-03-09 19:47:47 /0611/hep-ph.0611020 7710000[\setcaptionwidth].
112450 2013-03-09 19:47:24 /0611/hep-ph.0611027 1020000[\layoutstyle, \classification].
112451 2013-03-09 19:47:11 /0611/hep-ph.0611034 1170000[\includegraphics, \ShortTitle, \email, \FullConference, \speaker]; 1 missing file[PoS.cls].
112452 2013-03-09 19:47:10 /0611/hep-ph.0611033 4160000[\GNUPlotG, \FAVert, \FADiagram, \GNUPlotE, \GNUPlotC, \layoutstyle, \GNUPlotI, \GNUPlotD, \FALabel, \GNUPlotA, {feynartspicture}, \psfrag, \GNUPlotB, \classification, \FAProp]; 1 missing file[colordvi.sty].
112453 2013-03-09 19:46:58 /0611/hep-ph.0611016 330000[{theacknowledgments}, \layoutstyle, \classification].
112454 2013-03-09 19:46:55 /0611/hep-ph.0611011 19160000[\fmffreeze, {fmffile}, \fmf, \fmflabel, \fmfv, \fmftop, \fmfpen, {fmfgraph*}, \fmfset, \fmfleft, \fmfright, \fmfstraight].
112455 2013-03-09 19:46:49 /0611/hep-ph.0611018 030000[{theacknowledgments}, \layoutstyle, \classification].
112456 2013-03-09 19:46:37 /0611/hep-ph.0611022 310000[{centering}].
112457 2013-03-09 19:46:36 /0611/hep-ph.0611003 620000[\layoutstyle, \classification].
112458 2013-03-09 19:46:35 /0611/hep-ph.0611005 1640000[\eqref, {theacknowledgments}, \layoutstyle, \classification].
112459 2013-03-09 19:46:25 /0611/hep-ph.0611007 720000[\layoutstyle, \classification].
112460 2013-03-09 19:46:20 /0611/hep-lat.0611011 1510000[\citen].
112461 2013-03-09 19:46:19 /0611/hep-ph.0611012 1030000[\@footnotetext].
112462 2013-03-09 19:46:18 /0611/hep-ph.0611010 220000[\layoutstyle, \classification].
112463 2013-03-09 19:46:12 /0611/hep-lat.0611029 30160000[\includegraphics, \ShortTitle, \email, \FullConference, \acknowledgments, \speaker]; 1 missing file[PoS.cls].
112464 2013-03-09 19:45:48 /0611/hep-lat.0611034 2200000[\layoutstyle, \classification].
112465 2013-03-09 19:45:40 /0611/hep-ph.0611002 520000[\layoutstyle, \classification].
112466 2013-03-09 19:45:37 /0611/hep-lat.0611021 340000[{theacknowledgments}, \layoutstyle, \classification]; 1 missing file[{aipcheck}].
112467 2013-03-09 19:45:31 /0611/hep-lat.0611026 150000[\includegraphics, \ShortTitle, \email, \FullConference, \speaker]; 1 missing file[PoS.cls].
112468 2013-03-09 19:45:29 /0611/hep-lat.0611025 650000[\includegraphics, \ShortTitle, \email, \FullConference, \speaker]; 1 missing file[PoS.cls].
112469 2013-03-09 19:45:23 /0611/hep-lat.0611024 740000[\bodymatter, \refcite, \keywords]; 1 missing file[ws.sty].
112470 2013-03-09 19:45:23 /0611/hep-lat.0611027 5160000[\includegraphics, \ShortTitle, \email, \lesssim, \FullConference, \scalebox, \speaker]; 1 missing file[PoS.cls].
112471 2013-03-09 19:45:20 /0611/hep-lat.0611028 240000[\ShortTitle, \email, \FullConference, \speaker]; 1 missing file[PoS.cls].
112472 2013-03-09 19:45:15 /0611/hep-ex.0611057 16170000[{tabnote}, \psfig, \tbl, \keywords, \colrule, \bodymatter, \botrule, \toprule, \text, \citen]; 1 missing file[ws.sty].
112473 2013-03-09 19:45:15 /0611/hep-lat.0611009 1040000[\includegraphics, \ShortTitle, \FullConference, \speaker]; 1 missing file[PoS.cls].
112474 2013-03-09 19:45:10 /0611/hep-ex.0611036 050000[{sidewaysfigure}].
112475 2013-03-09 19:45:02 /0611/hep-lat.0611014 210000[\geometry].
112476 2013-03-09 19:44:54 /0611/hep-lat.0611005 16150000[\Blue, \ProcessBlue, \Magenta, \FullConference, \Yellow, \Gray, \Black, \ShortTitle, \email, \Green, \RawSienna, \RedOrange, \Red, \speaker]; 2 missing files[PoS.cls, colordvi.sty].
112477 2013-03-09 19:44:52 /0611/hep-lat.0611015 030000[\bodymatter, \tbl]; 1 missing file[ws.sty].
112478 2013-03-09 19:44:46 /0611/hep-lat.0611002 330000[\layoutstyle, \classification]; 1 missing file[{aipcheck}].
112479 2013-03-09 19:44:44 /0611/hep-lat.0611007 740000[{theacknowledgments}, \layoutstyle, \classification]; 1 missing file[aipcheck.tex].
112480 2013-03-09 19:44:43 /0611/hep-ex.0611040 030000[\extrasenglish, \dateenglish, \captionsenglish].
112481 2013-03-09 19:44:39 /0611/hep-lat.0611006 1660000[\includegraphics, \ShortTitle, \FullConference, \speaker]; 1 missing file[PoS.cls].
112482 2013-03-09 19:44:33 /0611/hep-ex.0611034 15180000[\includegraphics, \ccode, \gtrsim, \nrightarrow, \rotatebox, \tbl, \keywords]; 1 missing file[ws.sty].
112483 2013-03-09 19:44:30 /0611/hep-lat.0611008 150000[\includegraphics, \bodymatter]; 1 missing file[ws.sty].
112484 2013-03-09 19:44:28 /0611/hep-ex.0611037 3210000[\smaller].
112485 2013-03-09 19:44:27 /0611/hep-ex.0611051 930000[\PARstart, \authorinfo, \firstpage].
112486 2013-03-09 19:44:25 /0611/gr-qc.0611152 53130000[\ccode, \catchline, {history}, \psfig, \revised, \keywords, \received]; 1 missing file[ws.sty].
112487 2013-03-09 19:44:21 /0611/hep-ex.0611053 330000[{theacknowledgments}, \layoutstyle, \classification].
112488 2013-03-09 19:44:16 /0611/hep-ex.0611035 420000[\layoutstyle, \classification].
112489 2013-03-09 19:44:11 /0611/hep-ex.0611038 1450000[\smaller, {theacknowledgments}, \layoutstyle, \classification]; 1 missing file[{aipcheck}].
112490 2013-03-09 19:44:01 /0611/hep-ex.0611028 1110000[\smaller].
112491 2013-03-09 19:43:55 /0611/hep-ex.0611042 4130000[\includegraphics, \catchline, \refcite, \keywords]; 1 missing file[ws.sty].
112492 2013-03-09 19:43:50 /0611/hep-ex.0611018 7570000[\xspace, \gtrsim, \makezeustitle, {mcbibliography}, \epsfig, \text, \prepnum]; 1 missing file[./zeus_paper.cls].
112493 2013-03-09 19:43:45 /0611/hep-ex.0611031 110000[\smaller].
112494 2013-03-09 19:43:44 /0611/hep-ex.0611014 2130000[\smaller].
112495 2013-03-09 19:43:44 /0611/hep-ex.0611029 540000[\includegraphics, \smaller, \bodymatter]; 1 missing file[ws.sty].
112496 2013-03-09 19:43:41 /0611/gr-qc.0611154 44130000[\objectmargin, \xymatrix, \xy, \xygraph, \endxy, Align, \MM, \ar]; 1 missing file[xy.sty].
112497 2013-03-09 19:43:39 /0611/hep-ex.0611016 480000[\Pep, \eg, \as, \GeV, \Pem, \ie]; 2 missing files[subscript.sty, pslatex.sty].
112498 2013-03-09 19:43:30 /0611/hep-ex.0611019 2410000[\smaller].
112499 2013-03-09 19:43:09 /0611/hep-ex.0611005 030000[\layoutstyle, \classification]; 1 missing file[{aipcheck}].
112500 2013-03-09 19:43:08 /0611/hep-ex.0611006 740000[{theacknowledgments}, \layoutstyle, \classification]; 1 missing file[{aipcheck}].
112501 2013-03-09 19:43:06 /0611/hep-ex.0611010 0110000[{theacknowledgments}, \layoutstyle, \tablehead, \gam, \chinon, \e, \pb, \PR, \classification]; 2 missing files[myphysics.sty, {aipcheck}].
112502 2013-03-09 19:42:59 /0611/hep-ex.0611011 020000[\layoutstyle, \classification].
112503 2013-03-09 19:42:58 /0611/hep-ex.0611012 0120000[\epsfbox, \makezeustitle, \epsfig, \epsfxsize]; 1 missing file[graphpap.sty].
112504 2013-03-09 19:42:55 /0611/gr-qc.0611141 17360000[{rotate}].
112505 2013-03-09 19:42:38 /0611/gr-qc.0611145 030000[\ack, \psfrag, \ead].
112506 2013-03-09 19:42:28 /0611/gr-qc.0611158 020000[\bodymatter]; 1 missing file[ws.sty].
112507 2013-03-09 19:42:26 /0611/gr-qc.0611132 1130000[\psfrag, \psfragscanon, {psfrags}].
112508 2013-03-09 19:42:14 /0611/gr-qc.0611150 150000[\email, \bodymatter, \wstoc, \keywords]; 1 missing file[ws.sty].
112509 2013-03-09 19:42:07 /0611/gr-qc.0611137 040000[\ccode, \catchline, \keywords]; 1 missing file[ws.sty].
112510 2013-03-09 19:42:00 /0611/gr-qc.0611125 8120000[\rest, \bt, \newsymbol]; 9 missing files[xycurve.sty, xymatrix.sty, xyline.sty, xyarrow.sty, xycmtip.sty, xycolor.sty, xyrotate.sty, xyframe.sty, xygraph.sty].
112511 2013-03-09 19:41:12 /0611/gr-qc.0611097 27110000[\Line, \SetColor, \Black, \Text, \SetWidth, \DashCArc, \SetScale, \CArc, \GOval, \DashLine].
112512 2013-03-09 19:41:05 /0611/gr-qc.0611080 2210000[\psfrag].
112513 2013-03-09 19:40:58 /0611/gr-qc.0611119 030000[\mr, \br, \ead].
112514 2013-03-09 19:40:50 /0611/gr-qc.0611117 730000[\boldsymbol, \bodymatter]; 1 missing file[ws.sty].
112515 2013-03-09 19:40:23 /0611/gr-qc.0611106 1130000[\extrasenglish, \dateenglish, \captionsenglish].
112516 2013-03-09 19:40:14 /0611/gr-qc.0611098 85130000[\theappendix, \layoutstyle, \classification].
112517 2013-03-09 19:40:02 /0611/gr-qc.0611092 0430000[\tyo, \vague, \eps, \accl, \commae, \ihor, \conpar, \abs, \OO, \dateenglish, \EMF, \ahor, \yo, \y, \field, \area, \yi, \zM, \tht, \x, \grad, \extrasenglish, \period, \conicity, \totcharge, \mtrc, \mass, \cvil, \realn, \ohor, \tM, \surfgr, \distao, \yc, \
112518 2013-03-09 19:39:53 /0611/gr-qc.0611095 0250000[\comby, \catchline, \refcite, \tbl, \keywords, {history}, \cdash, \revised, \received]; 1 missing file[ws.sty].
112519 2013-03-09 19:39:18 /0611/gr-qc.0611073 2430000[\\, \title, \author].
112520 2013-03-09 19:39:08 /0611/gr-qc.0611074 3430000[\\, \title, \author].
112521 2013-03-09 19:38:56 /0611/gr-qc.0611076 27190000[\psfrag, \ead].
112522 2013-03-09 19:38:44 /0611/gr-qc.0611049 3110000[\psfrag].
112523 2013-03-09 19:38:29 /0611/gr-qc.0611047 24110000[\zetaup, \chiup, \eucl, \mink, \kappaup, \piup, \Mf, \okr, \omegaup, \nat, \rea].
112524 2013-03-09 19:37:37 /0611/gr-qc.0611039 1540000[{theacknowledgments}, \layoutstyle, \classification]; 1 missing file[{aipcheck}].
112525 2013-03-09 19:37:34 /0611/gr-qc.0611040 1510000[\ead].
112526 2013-03-09 19:37:33 /0611/gr-qc.0611033 1910000[\theappendix].
112527 2013-03-09 19:37:09 /0611/gr-qc.0611046 580000[\noextrasitalian, \noextrasenglish, \extrasitalian, \dateitalian, \dateenglish, \extrasenglish, \captionsitalian, \captionsenglish].
112528 2013-03-09 19:36:50 /0611/cs.0611125 61750000[{keywords}, \QED, \IEEEpeerreviewmaketitle, \IEEEmembership]; 2 missing files[IEEEtran.cls, epsbox.sty].
112529 2013-03-09 19:36:47 /0611/gr-qc.0611036 020000[\layoutstyle, \classification].
112530 2013-03-09 19:36:46 /0611/gr-qc.0611022 810000[\bezier].
112531 2013-03-09 19:36:43 /0611/gr-qc.0611021 120000[\layoutstyle, \classification].
112532 2013-03-09 19:36:13 /0611/cs.0611160 520000[{keywords}, {proof}]; 1 missing file[IEEEtran.cls].
112533 2013-03-09 19:36:04 /0611/cs.0611165 0370000[\EndFunction, \EndProcedure, {algorithm}, \ElsIf, {algorithmic}, \Statex, \If, \EndIf, \Procedure, \EndFor, \EndWhile, \Else, \While, \yields, \Function, \Call, \ForAll, \State, \Return]; 1 missing file[xy.sty].
112534 2013-03-09 19:35:59 /0611/cs.0611162 920000[{keywords}, {proof}]; 1 missing file[IEEEtran.cls].
112535 2013-03-09 19:35:48 /0611/cs.0611161 440000[\QEDopen, {keywords}, \PARstart, {proof}]; 1 missing file[IEEEtran.cls].
112536 2013-03-09 19:35:44 /0611/cs.0611143 40380000[{algor}, \qto, \rrbracket, \qdo, \psfrag, \qfor, {psfrags}, \SilentMatrices, \llbracket, \qlet, \psfragscanon, \qinput, \qwhile, \qoutput, \UseAllTwocells, \qend, \qrof]; 3 missing files[flafter.sty, xy.sty, algo.sty].
112537 2013-03-09 19:35:42 /0611/cs.0611144 4620000[\psfrag, {proof}]; 1 missing file[IEEEtran.cls].
112538 2013-03-09 19:35:26 /0611/cs.0611155 2440000[{keywords}, {proof}]; 1 missing file[IEEEtran.cls].
112539 2013-03-09 19:34:54 /0611/cs.0611048 93160000[\titlecomment, \dto, {exa}, \problemx, \keywords, \urladdr, \address, \email, \subjclass, {rem}, \Z, {proof}, {thm}, {defi}, {lem}]; 2 missing files[lmcs.cls, smallmath.sty].
112540 2013-03-09 19:34:51 /0611/cs.0611115 57410000[\RRresume, \titlehead, \RRprojet, \RRtitle, \makeRR, \RRnote, \RRetitle, \RRauthor, \RRtheme, \authorhead, \URSophia, \RRabstract, \RRdate, \THCog, \includegraphics, \RRmotcle, \DeclareGraphicsExtensions, \RRkeyword]; 1 missing file[RR.sty].
112541 2013-03-09 19:34:49 /0611/cs.0611123 4350000[\RCSDate, \RCS]; 1 missing file[rcs.sty].
112542 2013-03-09 19:34:34 /0611/cs.0611130 070000[{sidewaystable}, {sidewaysfigure}].
112543 2013-03-09 19:34:30 /0611/cs.0611139 6450000[Align, \infer, \rrbracket, \llbracket]; 1 missing file[pslatex.sty].
112544 2013-03-09 19:34:30 /0611/cs.0611141 6180000[\ElseIf, \li, \Do, \Else, \Procname, {codebox}, \normalem, \RComment, \Then, \If, \For, \proc, \Return, \End]; 1 missing file[clrscode.sty].
112545 2013-03-09 19:34:18 /0611/cs.0611131 28140000[\affaddr, \numberofauthors, \terms, \alignauthor, \keywords, \includegraphics, \email, \category, \balancecolumns]; 1 missing file[www2007-submissionowww.cls].
112546 2013-03-09 19:34:14 /0611/cs.0611046 213290000[\endprooftree, \acmNumber, \elecappendix, \acmVolume, \using, {received}, {acks}, {bottomstuff}, \keywords, \acmYear, \category, \prooftree, \justifies]; 1 missing file[acmtrans2m.cls].
112547 2013-03-09 19:34:12 /0611/cs.0611140 1100000[\conferenceinfo, \affaddr, \numberofauthors, \terms, \alignauthor, \keywords, \crdata, \CopyrightYear, \email, \category].
112548 2013-03-09 19:33:53 /0611/cs.0611119 2580000[\address, \subjclass, \email, \theoremstyle, {proof}, \keywords]; 1 missing file[lmcs.cls].
112549 2013-03-09 19:33:46 /0611/cs.0611103 110000[\theappendix].
112550 2013-03-09 19:33:45 /0611/cs.0611106 2440000[{keywords}, {biography}, \IEEEmembership, \appendices]; 1 missing file[IEEEtran.cls].
112551 2013-03-09 19:33:17 /0611/cs.0611070 3240000[\authorblockN, \authorblockA, \IEEEpeerreviewmaketitle, \appendices]; 1 missing file[IEEEtran.cls].
112552 2013-03-09 19:33:06 /0611/cs.0611109 1520000[{keywords}, \PARstart]; 1 missing file[IEEEtran.cls].
112553 2013-03-09 19:33:00 /0611/cs.0611091 550000[{keywords}, \PARstart, \psfrag]; 2 missing files[shortvrb.sty, IEEEtran.cls].
112554 2013-03-09 19:33:00 /0611/cs.0611105 020000[\toappear]; 1 missing file[sigmin.sty].
112555 2013-03-09 19:32:56 /0611/cs.0611094 42350000[\reflemma, {lemma}, {theorem}, \eat, {claim}, \ordinalg, {proof}]; 1 missing file[defpaper.sty].
112556 2013-03-09 19:32:38 /0611/cs.0611089 27310000[\ElseIf, \lElseIf, {algorithm}, \Repeat, \If, \For, \SetLine, \KwIn, \authorblockA, \KwOut, \While, \authorblockN, \BlankLine, \Return, \tcp, {proof}, \lIf]; 1 missing file[IEEEtran.cls].
112557 2013-03-09 19:32:36 /0611/cs.0611090 1440000[{keywords}, {algorithm}, \appendices]; 1 missing file[IEEEtran.cls].
112558 2013-03-09 19:32:23 /0611/cs.0611093 47500000[\psrelpoint, \category, \citeNP, \terms, {acks}, {bottomstuff}, \keywords]; 3 missing files[pst-rel-points.sty, pst-text.sty, acmtrans2emod.cls].
112559 2013-03-09 19:32:14 /0611/cs.0611100 3440000[Align, \xymatrix, \ar]; 1 missing file[xy.sty].
112560 2013-03-09 19:32:11 /0611/cs.0611097 130000[\authorblockN, \authorblockA, {proof}]; 1 missing file[IEEEtran.cls].
112561 2013-03-09 19:32:06 /0611/cs.0611071 540000[\authorblockN, \authorblockA, \IEEEpeerreviewmaketitle]; 2 missing files[IEEEtran.cls, ams.sty].
112562 2013-03-09 19:32:04 /0611/cs.0611072 760000[\authorblockN, \N, \authorblockA]; 2 missing files[IEEEtran.cls, ams.sty].
112563 2013-03-09 19:31:56 /0611/cs.0611073 230000[\authorblockN, \authorblockA, {proof}]; 1 missing file[IEEEtran.cls].
112564 2013-03-09 19:31:52 /0611/cs.0611085 870000[\surname, \email, \runningauthor, \institute, {opening}, {article}, \keywords].
112565 2013-03-09 19:31:45 /0611/cs.0611057 1160000[\URSophia, \RRresume, \titlehead, \RRprojet, \RRabstract, \RRtitle, \RRdate, \THSym, \RRetitle, \makeRT, \RRmotcle, \RRauthor, \RRtheme, \RRkeyword, \authorhead]; 1 missing file[RR.sty].
112566 2013-03-09 19:31:44 /0611/cs.0611059 510000[\theappendix]; 1 missing file[IEEEtran.cls].
112567 2013-03-09 19:31:38 /0611/cs.0611053 80270000[\geometry].
112568 2013-03-09 19:31:32 /0611/cs.0611018 3820000[\SIGACTmaketitle]; 1 missing file[SIGACTNews.sty].
112569 2013-03-09 19:31:24 /0611/cs.0611031 1890000[{received}, \terms, {bottomstuff}, \keywords, {definition}, \category, \psfrag, \newdef, {proof}]; 1 missing file[acmtrans2m.cls].
112570 2013-03-09 19:31:08 /0611/cs.0611034 22500000[\lFor, {algorithm}, \RRresume, \titlehead, \RRprojet, \RRtitle, \makeRR, \RRetitle, \If, \For, \SetLine, \lForEach, \lElse, \RRauthor, \RRtheme, \THNum, \authorhead, \eIf, \RRabstract, \ForEach, \While, \RRdate, \URRhoneAlpes, \includegraphics, \RRmotcle
112571 2013-03-09 19:31:00 /0611/cs.0611043 010000[\geometry].
112572 2013-03-09 19:30:57 /0611/cs.0611054 6220000[\AND]; 1 missing file[nips06.sty].
112573 2013-03-09 19:30:53 /0611/cs.0611019 80340000[\xspace, \subsetneq, \EuScript, \rrbracket, \et, \mP, \For, \mF, {invariant}, \KwIn, \impl, \mM, {algorithm2e}, \llbracket, \equi, \mathbb, \mC, \KwOut, \While, \mB, \includegraphics, \dontprintsemicolon, \chev, \euss, \mZ, \mN, \mT, \lIf]; 1 missing fil
112574 2013-03-09 19:30:48 /0611/cs.0611025 79140000[{@proof}].
112575 2013-03-09 19:30:32 /0611/cs.0611037 3540000[\authorblockN, {comment}, \authorblockA, \psfrag]; 1 missing file[IEEEtran.cls].
112576 2013-03-09 19:30:31 /0611/cs.0611056 0160000[\THCom, \RRresume, \titlehead, \RRprojet, \RRabstract, \RRtitle, \makeRR, \RRdate, \URRhoneAlpes, \RRetitle, \RRmotcle, \RRauthor, \RRtheme, \RRkeyword, \authorhead]; 1 missing file[RR.sty].
112577 2013-03-09 19:30:26 /0611/cs.0611007 20110000[{keywords}, \captiontext, \IEEEaftertitletext, \authorrefmark, \authorblockA, \captionstyle, \appendices, \authorblockN, \captionlabel, {proof}, \newcaptionstyle]; 1 missing file[IEEEtran.cls].
112578 2013-03-09 19:30:18 /0611/cs.0611002 11720000[{biography}, \DeclareOldFontCommand]; 1 missing file[IEEEtran.cls].
112579 2013-03-09 19:30:07 /0611/cs.0611023 1830000[\mathds].
112580 2013-03-09 19:29:53 /0611/cs.0611020 130000[\authorblockN, \authorrefmark, \authorblockA]; 1 missing file[IEEEtran.cls].
112581 2013-03-09 19:29:53 /0611/cs.0611027 20200000[\THCom, \RRresume, \titlehead, \URRocq, \RRtitle, \makeRR, \RRprojets, \RRetitle, \RRNo, \RRauthor, \RRtheme, \authorhead, \RRabstract, \resizebox, \RRdate, \includegraphics, \THSym, \RRmotcle, \RRkeyword]; 1 missing file[RR.sty].
112582 2013-03-09 19:29:34 /0611/cs.0611012 170000[{keywords}, \captiontext, \captionlabel, \IEEEmembership, \captionstyle, {proof}, \newcaptionstyle]; 1 missing file[IEEEtran.cls].
112583 2013-03-09 19:29:25 /0611/cs.0611005 050000[\affil, \citep, \tableline, \acknowledgements]; 1 missing file[asp2006.sty].
112584 2013-03-09 19:29:11 /0611/cs.0611014 110000[\geometry]; 1 missing file[scrartcl.cls].
112585 2013-03-09 19:29:03 /0611/cs.0611016 0370000[\algwhile, \THCom, \RRresume, \titlehead, \RRprojet, \RRtitle, \fref, \algname, \RRetitle, \algifthen, \algand, \algcall, \RRtheme, \authorhead, \aref, \URRennes, \sect, \algif, \RRabstract, \subsect, \algnot, {algtab}, \RRmotcle, {algo}, \RRkeyword, \ma
112586 2013-03-09 19:28:42 /0611/cs.0611001 010000[\newtheorem].
112587 2013-03-09 19:28:39 /0611/cond-mat.0611745 1010000[\theappendix].
112588 2013-03-09 19:28:31 /0611/cond-mat.0611758 9370000[\fmffreeze, {fmffile}, {fmfgraph}, \fmf, \fmflabel, \fmfv, \fmftop, {fmfgraph*}, \fmfleft, \fmfright].
112589 2013-03-09 19:28:28 /0611/cond-mat.0611773 020000[\PACS]; 1 missing file[size11.clo.sty].
112590 2013-03-09 19:28:17 /0611/cond-mat.0611776 1100000[\pacs, \inst, \shortauthor, \institute, \onefigure, \acknowledgments, \shorttitle, \Name, \REVIEW, \etal]; 1 missing file[epl2.cls].
112591 2013-03-09 19:28:14 /0611/cond-mat.0611756 010000[\address].
112592 2013-03-09 19:28:08 /0611/cond-mat.0611750 010000[\citenum].
112593 2013-03-09 19:27:25 /0611/cond-mat.0611740 030000[\extrasenglish, \dateenglish, \captionsenglish].
112594 2013-03-09 19:27:08 /0611/cond-mat.0611718 2010000[{comment}].
112595 2013-03-09 19:26:42 /0611/cond-mat.0611719 1410000[\psfrag].
112596 2013-03-09 19:26:16 /0611/cond-mat.0611694 2250000[\abst, \kword, \inst, \recdate, \mib].
112597 2013-03-09 19:25:54 /0611/cond-mat.0611691 1330000[\kword, \abst, \inst].
112598 2013-03-09 19:25:10 /0611/cond-mat.0611687 1150000[\includegraphics, Align, \si, \Tr, \<, {align}].
112599 2013-03-09 19:25:00 /0611/cond-mat.0611656 030000[\extrasenglish, \dateenglish, \captionsenglish].
112600 2013-03-09 19:24:04 /0611/cond-mat.0611612 4780000[\catchline, {history}, \rrbracket, \llbracket, \mathfrak, \keywords, \received]; 1 missing file[ws.sty].
<<< >>>

[0] [200] [400] [600] [800] [1000] [1200] [1400] [1600] [1800] [2000] [2200] [2400] [2600] [2800] [3000] [3200] [3400] [3600] [3800] [4000] [4200] [4400] [4600] [4800] [5000] [5200] [5400] [5600] [5800] [6000] [6200] [6400] [6600] [6800] [7000] [7200] [7400] [7600] [7800] [8000] [8200] [8400] [8600] [8800] [9000] [9200] [9400] [9600] [9800] [10000] [10200] [10400] [10600] [10800] [11000] [11200] [11400] [11600] [11800] [12000] [12200] [12400] [12600] [12800] [13000] [13200] [13400] [13600] [13800] [14000] [14200] [14400] [14600] [14800] [15000] [15200] [15400] [15600] [15800] [16000] [16200] [16400] [16600] [16800] [17000] [17200] [17400] [17600] [17800] [18000] [18200] [18400] [18600] [18800] [19000] [19200] [19400] [19600] [19800] [20000] [20200] [20400] [20600] [20800] [21000] [21200] [21400] [21600] [21800] [22000] [22200] [22400] [22600] [22800] [23000] [23200] [23400] [23600] [23800] [24000] [24200] [24400] [24600] [24800] [25000] [25200] [25400] [25600] [25800] [26000] [26200] [26400] [26600] [26800] [27000] [27200] [27400] [27600] [27800] [28000] [28200] [28400] [28600] [28800] [29000] [29200] [29400] [29600] [29800] [30000] [30200] [30400] [30600] [30800] [31000] [31200] [31400] [31600] [31800] [32000] [32200] [32400] [32600] [32800] [33000] [33200] [33400] [33600] [33800] [34000] [34200] [34400] [34600] [34800] [35000] [35200] [35400] [35600] [35800] [36000] [36200] [36400] [36600] [36800] [37000] [37200] [37400] [37600] [37800] [38000] [38200] [38400] [38600] [38800] [39000] [39200] [39400] [39600] [39800] [40000] [40200] [40400] [40600] [40800] [41000] [41200] [41400] [41600] [41800] [42000] [42200] [42400] [42600] [42800] [43000] [43200] [43400] [43600] [43800] [44000] [44200] [44400] [44600] [44800] [45000] [45200] [45400] [45600] [45800] [46000] [46200] [46400] [46600] [46800] [47000] [47200] [47400] [47600] [47800] [48000] [48200] [48400] [48600] [48800] [49000] [49200] [49400] [49600] [49800] [50000] [50200] [50400] [50600] [50800] [51000] [51200] [51400] [51600] [51800] [52000] [52200] [52400] [52600] [52800] [53000] [53200] [53400] [53600] [53800] [54000] [54200] [54400] [54600] [54800] [55000] [55200] [55400] [55600] [55800] [56000] [56200] [56400] [56600] [56800] [57000] [57200] [57400] [57600] [57800] [58000] [58200] [58400] [58600] [58800] [59000] [59200] [59400] [59600] [59800] [60000] [60200] [60400] [60600] [60800] [61000] [61200] [61400] [61600] [61800] [62000] [62200] [62400] [62600] [62800] [63000] [63200] [63400] [63600] [63800] [64000] [64200] [64400] [64600] [64800] [65000] [65200] [65400] [65600] [65800] [66000] [66200] [66400] [66600] [66800] [67000] [67200] [67400] [67600] [67800] [68000] [68200] [68400] [68600] [68800] [69000] [69200] [69400] [69600] [69800] [70000] [70200] [70400] [70600] [70800] [71000] [71200] [71400] [71600] [71800] [72000] [72200] [72400] [72600] [72800] [73000] [73200] [73400] [73600] [73800] [74000] [74200] [74400] [74600] [74800] [75000] [75200] [75400] [75600] [75800] [76000] [76200] [76400] [76600] [76800] [77000] [77200] [77400] [77600] [77800] [78000] [78200] [78400] [78600] [78800] [79000] [79200] [79400] [79600] [79800] [80000] [80200] [80400] [80600] [80800] [81000] [81200] [81400] [81600] [81800] [82000] [82200] [82400] [82600] [82800] [83000] [83200] [83400] [83600] [83800] [84000] [84200] [84400] [84600] [84800] [85000] [85200] [85400] [85600] [85800] [86000] [86200] [86400] [86600] [86800] [87000] [87200] [87400] [87600] [87800] [88000] [88200] [88400] [88600] [88800] [89000] [89200] [89400] [89600] [89800] [90000] [90200] [90400] [90600] [90800] [91000] [91200] [91400] [91600] [91800] [92000] [92200] [92400] [92600] [92800] [93000] [93200] [93400] [93600] [93800] [94000] [94200] [94400] [94600] [94800] [95000] [95200] [95400] [95600] [95800] [96000] [96200] [96400] [96600] [96800] [97000] [97200] [97400] [97600] [97800] [98000] [98200] [98400] [98600] [98800] [99000] [99200] [99400] [99600] [99800] [100000] [100200] [100400] [100600] [100800] [101000] [101200] [101400] [101600] [101800] [102000] [102200] [102400] [102600] [102800] [103000] [103200] [103400] [103600] [103800] [104000] [104200] [104400] [104600] [104800] [105000] [105200] [105400] [105600] [105800] [106000] [106200] [106400] [106600] [106800] [107000] [107200] [107400] [107600] [107800] [108000] [108200] [108400] [108600] [108800] [109000] [109200] [109400] [109600] [109800] [110000] [110200] [110400] [110600] [110800] [111000] [111200] [111400] [111600] [111800] [112000] [112200] [112400] [112600] [112800] [113000] [113200] [113400] [113600] [113800] [114000] [114200] [114400] [114600] [114800] [115000] [115200] [115400] [115600] [115800] [116000] [116200] [116400] [116600] [116800] [117000] [117200] [117400] [117600] [117800] [118000] [118200] [118400] [118600] [118800] [119000] [119200] [119400] [119600] [119800] [120000] [120200] [120400] [120600] [120800] [121000] [121200] [121400] [121600] [121800] [122000] [122200] [122400] [122600] [122800] [123000] [123200] [123400] [123600] [123800] [124000] [124200] [124400] [124600] [124800] [125000] [125200] [125400] [125600] [125800] [126000] [126200] [126400] [126600] [126800] [127000] [127200] [127400] [127600] [127800] [128000] [128200] [128400] [128600] [128800] [129000] [129200] [129400] [129600] [129800] [130000] [130200] [130400] [130600] [130800] [131000] [131200] [131400] [131600] [131800] [132000] [132200] [132400] [132600] [132800] [133000] [133200] [133400] [133600] [133800] [134000] [134200] [134400] [134600] [134800] [135000] [135200] [135400] [135600] [135800] [136000] [136200] [136400] [136600] [136800] [137000] [137200] [137400] [137600] [137800] [138000] [138200] [138400] [138600] [138800] [139000] [139200] [139400] [139600] [139800] [140000] [140200] [140400] [140600] [140800] [141000] [141200] [141400] [141600] [141800] [142000] [142200] [142400] [142600] [142800] [143000] [143200] [143400] [143600] [143800] [144000] [144200] [144400] [144600] [144800] [145000] [145200] [145400] [145600] [145800] [146000] [146200] [146400] [146600] [146800] [147000] [147200] [147400] [147600] [147800] [148000] [148200] [148400] [148600] [148800] [149000] [149200] [149400] [149600] [149800] [150000] [150200] [150400] [150600] [150800] [151000] [151200] [151400] [151600] [151800] [152000] [152200] [152400] [152600] [152800] [153000] [153200] [153400] [153600] [153800] [154000] [154200] [154400] [154600] [154800] [155000] [155200] [155400] [155600] [155800] [156000] [156200] [156400] [156600] [156800] [157000] [157200] [157400] [157600] [157800] [158000] [158200] [158400] [158600] [158800] [159000] [159200] [159400] [159600] [159800] [160000] [160200] [160400] [160600] [160800] [161000] [161200] [161400] [161600] [161800] [162000] [162200] [162400] [162600] [162800] [163000] [163200] [163400] [163600] [163800] [164000] [164200] [164400] [164600]
 
  The service has been written by
Heinrich Stamerjohanns